createdAt,value
2023-05-19T00:02:27.418Z,4.90
2023-05-19T00:04:56.259Z,4.60
2023-05-19T00:07:29.455Z,3.90
2023-05-19T00:09:56.763Z,4.03
2023-05-19T00:12:24.561Z,4.50
2023-05-19T00:14:52.050Z,4.27
2023-05-19T00:17:20.505Z,3.87
2023-05-19T00:19:47.443Z,4.10
2023-05-19T00:22:16.164Z,3.43
2023-05-19T00:24:43.123Z,3.50
2023-05-19T00:27:10.369Z,3.53
2023-05-19T00:29:37.237Z,3.63
2023-05-19T00:32:04.906Z,3.87
2023-05-19T00:34:31.838Z,3.97
2023-05-19T00:36:58.973Z,3.50
2023-05-19T00:39:27.126Z,3.40
2023-05-19T00:41:54.286Z,3.43
2023-05-19T00:44:21.135Z,4.07
2023-05-19T00:46:48.440Z,3.83
2023-05-19T00:49:15.319Z,3.33
2023-05-19T00:51:42.559Z,3.80
2023-05-19T00:54:09.792Z,4.00
2023-05-19T00:56:38.450Z,4.07
2023-05-19T00:59:05.421Z,3.83
2023-05-19T01:01:32.742Z,3.20
2023-05-19T01:04:01.095Z,3.53
2023-05-19T01:06:29.681Z,4.07
2023-05-19T01:08:57.392Z,3.30
2023-05-19T01:11:24.649Z,3.53
2023-05-19T01:13:52.863Z,3.60
2023-05-19T01:16:24.991Z,3.63
2023-05-19T01:21:56.880Z,3.23
2023-05-19T01:24:39.252Z,3.80
2023-05-19T01:27:34.928Z,3.53
2023-05-19T01:30:29.258Z,3.80
2023-05-19T01:33:00.052Z,3.57
2023-05-19T01:35:28.713Z,3.47
2023-05-19T01:37:57.493Z,3.50
2023-05-19T01:40:26.535Z,3.70
2023-05-19T01:42:57.398Z,3.83
2023-05-19T01:45:25.270Z,4.00
2023-05-19T01:47:56.127Z,4.10
2023-05-19T01:50:23.251Z,4.03
2023-05-19T01:52:50.891Z,3.00
2023-05-19T01:55:18.050Z,4.10
2023-05-19T01:57:55.732Z,3.87
2023-05-19T02:00:29.086Z,3.63
2023-05-19T02:03:09.535Z,4.17
2023-05-19T02:05:44.577Z,3.87
2023-05-19T02:08:16.869Z,4.40
2023-05-19T02:10:48.810Z,3.90
2023-05-19T02:13:18.888Z,4.20
2023-05-19T02:15:47.098Z,4.77
2023-05-19T02:18:18.256Z,4.00
2023-05-19T02:20:48.531Z,4.37
2023-05-19T02:23:15.742Z,3.67
2023-05-19T02:25:43.129Z,4.13
2023-05-19T02:28:10.308Z,3.90
2023-05-19T02:30:37.130Z,3.90
2023-05-19T02:33:06.685Z,3.80
2023-05-19T02:35:34.960Z,3.73
2023-05-19T02:38:01.834Z,4.57
2023-05-19T02:40:28.900Z,3.63
2023-05-19T02:42:55.936Z,4.17
2023-05-19T02:45:22.853Z,4.50
2023-05-19T02:47:50.023Z,3.73
2023-05-19T02:50:17.122Z,4.10
2023-05-19T02:52:45.763Z,4.47
2023-05-19T02:55:16.976Z,4.07
2023-05-19T02:57:44.240Z,4.30
2023-05-19T03:00:11.908Z,4.27
2023-05-19T03:02:40.005Z,3.73
2023-05-19T03:05:08.245Z,3.90
2023-05-19T03:07:35.120Z,3.97
2023-05-19T03:10:04.095Z,3.73
2023-05-19T03:12:31.915Z,4.20
2023-05-19T03:14:58.782Z,3.77
2023-05-19T03:17:26.246Z,4.53
2023-05-19T03:19:53.150Z,4.30
2023-05-19T03:22:21.370Z,3.73
2023-05-19T03:24:50.997Z,4.10
2023-05-19T03:27:19.154Z,4.30
2023-05-19T03:29:45.934Z,4.57
2023-05-19T03:32:13.062Z,4.23
2023-05-19T03:34:39.825Z,4.67
2023-05-19T03:37:06.960Z,4.10
2023-05-19T03:39:33.720Z,4.33
2023-05-19T03:42:00.901Z,4.17
2023-05-19T03:44:28.969Z,4.20
2023-05-19T03:46:55.831Z,4.20
2023-05-19T03:49:22.756Z,4.30
2023-05-19T03:51:49.715Z,4.03
2023-05-19T03:54:16.943Z,4.20
2023-05-19T03:56:43.937Z,4.10
2023-05-19T03:59:10.880Z,4.00
2023-05-19T04:01:39.303Z,4.10
2023-05-19T04:04:06.156Z,4.47
2023-05-19T04:06:34.208Z,4.40
2023-05-19T04:09:02.290Z,3.93
2023-05-19T04:11:29.070Z,4.20
2023-05-19T04:13:55.856Z,4.57
2023-05-19T04:16:23.058Z,4.50
2023-05-19T04:18:51.254Z,3.70
2023-05-19T04:21:18.395Z,4.03
2023-05-19T04:23:45.291Z,4.13
2023-05-19T04:26:12.568Z,4.00
2023-05-19T04:28:42.258Z,4.97
2023-05-19T04:31:11.108Z,4.17
2023-05-19T04:33:38.125Z,4.30
2023-05-19T04:36:09.039Z,4.07
2023-05-19T04:38:37.873Z,4.27
2023-05-19T04:41:04.974Z,4.37
2023-05-19T04:43:31.918Z,4.27
2023-05-19T04:45:59.223Z,4.50
2023-05-19T04:48:26.068Z,4.30
2023-05-19T04:50:53.503Z,4.40
2023-05-19T04:53:22.023Z,4.30
2023-05-19T04:55:50.497Z,4.37
2023-05-19T04:58:17.372Z,3.93
2023-05-19T05:00:44.229Z,4.17
2023-05-19T05:03:12.310Z,3.90
2023-05-19T05:05:39.536Z,3.97
2023-05-19T05:08:07.061Z,3.70
2023-05-19T05:10:35.589Z,3.80
2023-05-19T05:13:03.013Z,3.77
2023-05-19T05:15:30.496Z,3.87
2023-05-19T05:17:58.233Z,3.90
2023-05-19T05:20:26.458Z,4.17
2023-05-19T05:22:53.811Z,4.40
2023-05-19T05:25:21.800Z,4.00
2023-05-19T05:27:49.937Z,4.00
2023-05-19T05:30:17.030Z,3.80
2023-05-19T05:32:44.007Z,3.90
2023-05-19T05:35:11.375Z,4.07
2023-05-19T05:37:38.203Z,4.13
2023-05-19T05:40:07.337Z,3.93
2023-05-19T05:42:34.201Z,3.90
2023-05-19T05:45:02.954Z,4.03
2023-05-19T05:47:30.285Z,3.90
2023-05-19T05:49:58.100Z,4.63
2023-05-19T05:52:29.567Z,3.77
2023-05-19T05:54:57.266Z,3.70
2023-05-19T05:57:24.347Z,3.53
2023-05-19T05:59:51.613Z,3.80
2023-05-19T06:02:20.012Z,3.83
2023-05-19T06:04:47.130Z,3.60
2023-05-19T06:07:14.292Z,3.90
2023-05-19T06:09:41.477Z,3.37
2023-05-19T06:12:08.724Z,2.87
2023-05-19T06:14:35.594Z,3.43
2023-05-19T06:17:02.745Z,3.57
2023-05-19T06:19:30.976Z,3.27
2023-05-19T06:21:58.202Z,3.37
2023-05-19T06:24:25.080Z,3.83
2023-05-19T06:26:52.408Z,3.17
2023-05-19T06:29:19.215Z,2.90
2023-05-19T06:31:46.815Z,2.77
2023-05-19T06:34:17.515Z,3.30
2023-05-19T06:36:46.076Z,3.10
2023-05-19T06:39:13.003Z,3.40
2023-05-19T06:41:40.234Z,2.90
2023-05-19T06:44:08.959Z,2.80
2023-05-19T06:46:36.393Z,2.87
2023-05-19T06:49:03.262Z,2.80
2023-05-19T06:51:30.421Z,2.97
2023-05-19T06:53:58.545Z,2.63
2023-05-19T06:56:25.720Z,2.63
2023-05-19T06:58:52.544Z,2.77
2023-05-19T07:01:19.781Z,2.60
2023-05-19T07:03:46.822Z,2.47
2023-05-19T07:06:13.999Z,2.97
2023-05-19T07:08:40.876Z,3.50
2023-05-19T07:11:09.730Z,3.00
2023-05-19T07:13:36.561Z,3.27
2023-05-19T07:16:03.779Z,2.80
2023-05-19T07:18:33.635Z,2.60
2023-05-19T07:21:00.924Z,2.60
2023-05-19T07:23:27.777Z,2.93
2023-05-19T07:25:56.847Z,2.60
2023-05-19T07:28:25.389Z,2.90
2023-05-19T07:30:53.414Z,3.00
2023-05-19T07:33:20.430Z,3.10
2023-05-19T07:35:47.967Z,2.70
2023-05-19T07:38:14.817Z,2.60
2023-05-19T07:40:41.950Z,2.80
2023-05-19T07:43:08.758Z,2.93
2023-05-19T07:45:37.407Z,3.20
2023-05-19T07:48:04.452Z,2.40
2023-05-19T07:50:32.465Z,3.03
2023-05-19T07:52:59.416Z,3.00
2023-05-19T07:55:26.658Z,3.13
2023-05-19T07:57:53.550Z,2.97
2023-05-19T08:00:20.835Z,2.93
2023-05-19T08:02:49.181Z,2.93
2023-05-19T08:05:16.163Z,2.70
2023-05-19T08:07:43.064Z,7.13
2023-05-19T08:10:10.037Z,3.90
2023-05-19T08:12:36.890Z,2.50
2023-05-19T08:15:04.627Z,3.30
2023-05-19T08:17:31.510Z,2.57
2023-05-19T08:20:00.323Z,2.90
2023-05-19T08:22:27.521Z,2.80
2023-05-19T08:24:54.750Z,2.97
2023-05-19T08:27:21.643Z,2.33
2023-05-19T08:29:48.868Z,2.50
2023-05-19T08:32:15.813Z,2.00
2023-05-19T08:34:42.672Z,2.20
2023-05-19T08:37:11.883Z,2.50
2023-05-19T08:39:38.733Z,2.60
2023-05-19T08:42:08.295Z,2.22
2023-05-19T08:44:35.246Z,1.92
2023-05-19T08:47:12.941Z,2.35
2023-05-19T08:49:45.464Z,2.30
2023-05-19T08:52:25.323Z,2.47
2023-05-19T08:54:55.915Z,2.05
2023-05-19T08:57:25.203Z,2.30
2023-05-19T08:59:54.273Z,2.10
2023-05-19T09:02:22.665Z,2.47
2023-05-19T09:04:49.737Z,2.30
2023-05-19T09:07:19.972Z,2.33
2023-05-19T09:09:47.661Z,2.30
2023-05-19T09:12:15.019Z,2.40
2023-05-19T09:14:42.235Z,1.77
2023-05-19T09:17:09.860Z,2.20
2023-05-19T09:19:42.367Z,2.35
2023-05-19T09:22:09.236Z,2.45
2023-05-19T09:24:40.328Z,2.70
2023-05-19T09:27:07.761Z,2.15
2023-05-19T09:29:34.606Z,2.20
2023-05-19T09:32:06.460Z,2.00
2023-05-19T09:34:33.359Z,2.17
2023-05-19T09:37:00.337Z,2.22
2023-05-19T09:39:28.708Z,2.10
2023-05-19T09:41:59.038Z,2.30
2023-05-19T09:44:29.377Z,2.33
2023-05-19T09:46:57.861Z,1.85
2023-05-19T09:49:26.020Z,2.25
2023-05-19T09:51:54.995Z,2.13
2023-05-19T09:54:23.728Z,2.20
2023-05-19T09:57:00.020Z,2.00
2023-05-19T09:59:30.461Z,1.70
2023-05-19T10:02:00.539Z,1.70
2023-05-19T10:04:28.294Z,1.80
2023-05-19T10:06:59.390Z,2.00
2023-05-19T10:09:29.336Z,2.30
2023-05-19T10:11:59.393Z,1.83
2023-05-19T10:14:27.600Z,2.00
2023-05-19T10:16:56.385Z,2.05
2023-05-19T10:19:24.756Z,1.90
2023-05-19T10:21:52.814Z,2.15
2023-05-19T10:24:21.237Z,1.98
2023-05-19T10:26:51.876Z,1.98
2023-05-19T10:29:25.204Z,1.67
2023-05-19T10:31:54.573Z,1.48
2023-05-19T10:34:50.522Z,1.88
2023-05-19T10:37:27.312Z,1.80
2023-05-19T10:39:55.582Z,1.98
2023-05-19T10:42:36.728Z,2.00
2023-05-19T10:45:11.828Z,1.92
2023-05-19T10:47:41.222Z,1.75
2023-05-19T10:50:08.538Z,2.35
2023-05-19T10:52:38.057Z,2.53
2023-05-19T10:55:08.756Z,2.03
2023-05-19T10:57:35.965Z,1.65
2023-05-19T11:00:26.450Z,2.25
2023-05-19T11:02:56.572Z,1.80
2023-05-19T11:05:29.628Z,1.75
2023-05-19T11:08:02.563Z,1.75
2023-05-19T11:10:29.601Z,1.80
2023-05-19T11:12:58.327Z,1.90
2023-05-19T11:15:28.220Z,1.73
2023-05-19T11:17:55.776Z,1.70
2023-05-19T11:20:24.166Z,1.60
2023-05-19T11:23:04.966Z,1.60
2023-05-19T11:25:43.076Z,1.77
2023-05-19T11:28:12.570Z,1.55
2023-05-19T11:30:43.432Z,1.65
2023-05-19T11:33:11.102Z,1.98
2023-05-19T11:35:39.080Z,1.30
2023-05-19T11:38:07.503Z,1.80
2023-05-19T11:40:34.445Z,1.67
2023-05-19T11:43:02.315Z,1.50
2023-05-19T11:45:33.306Z,1.95
2023-05-19T11:48:03.585Z,1.20
2023-05-19T11:50:31.291Z,1.55
2023-05-19T11:53:00.767Z,1.27
2023-05-19T11:55:28.266Z,1.90
2023-05-19T11:58:04.949Z,1.42
2023-05-19T12:00:39.531Z,1.40
2023-05-19T12:03:09.295Z,1.33
2023-05-19T12:05:41.834Z,1.27
2023-05-19T12:08:10.694Z,1.30
2023-05-19T12:10:38.747Z,1.20
2023-05-19T12:13:08.329Z,1.30
2023-05-19T12:15:35.635Z,1.52
2023-05-19T12:18:03.697Z,1.40
2023-05-19T12:20:35.226Z,1.30
2023-05-19T12:23:03.370Z,1.40
2023-05-19T12:25:31.241Z,1.42
2023-05-19T12:27:59.643Z,1.30
2023-05-19T12:30:27.867Z,1.50
2023-05-19T12:32:57.211Z,1.63
2023-05-19T12:35:26.865Z,1.25
2023-05-19T12:37:55.634Z,1.52
2023-05-19T12:40:22.575Z,1.48
2023-05-19T12:42:52.297Z,1.70
2023-05-19T12:45:22.860Z,1.30
2023-05-19T12:47:50.754Z,1.60
2023-05-19T12:50:17.514Z,1.30
2023-05-19T12:52:46.603Z,1.60
2023-05-19T12:55:16.587Z,1.73
2023-05-19T12:57:45.010Z,1.63
2023-05-19T13:00:15.268Z,1.55
2023-05-19T13:02:56.535Z,1.80
2023-05-19T13:05:23.993Z,1.75
2023-05-19T13:07:55.849Z,1.80
2023-05-19T13:10:26.971Z,1.75
2023-05-19T13:12:55.840Z,1.77
2023-05-19T13:15:24.111Z,1.45
2023-05-19T13:17:51.939Z,1.60
2023-05-19T13:20:19.104Z,1.55
2023-05-19T13:22:47.103Z,1.95
2023-05-19T13:25:14.521Z,1.92
2023-05-19T13:27:43.348Z,1.63
2023-05-19T13:30:10.849Z,1.75
2023-05-19T13:32:38.417Z,1.35
2023-05-19T13:35:06.652Z,1.75
2023-05-19T13:37:33.950Z,1.48
2023-05-19T13:40:01.468Z,1.85
2023-05-19T13:42:28.673Z,1.60
2023-05-19T13:44:56.981Z,1.30
2023-05-19T13:47:24.180Z,1.50
2023-05-19T13:49:51.549Z,1.48
2023-05-19T13:52:19.001Z,1.50
2023-05-19T13:54:46.156Z,1.30
2023-05-19T13:57:13.012Z,1.30
2023-05-19T13:59:49.320Z,1.60
2023-05-19T14:02:30.427Z,1.25
2023-05-19T14:04:57.648Z,1.50
2023-05-19T14:07:25.970Z,1.60
2023-05-19T14:09:53.079Z,1.48
2023-05-19T14:12:23.324Z,1.70
2023-05-19T14:14:52.177Z,1.73
2023-05-19T14:17:19.209Z,1.63
2023-05-19T14:19:47.667Z,2.17
2023-05-19T14:22:15.057Z,15.73
2023-05-19T14:24:41.964Z,11.43
2023-05-19T14:27:08.974Z,12.93
2023-05-19T14:29:35.832Z,26.70
2023-05-19T14:32:04.138Z,14.27
2023-05-19T14:34:31.203Z,8.35
2023-05-19T14:36:59.863Z,4.35
2023-05-19T14:39:26.732Z,11.27
2023-05-19T14:41:54.590Z,2.58
2023-05-19T14:44:21.448Z,2.40
2023-05-19T14:46:48.504Z,2.25
2023-05-19T14:49:15.550Z,1.83
2023-05-19T14:51:42.488Z,2.08
2023-05-19T14:54:10.840Z,2.20
2023-05-19T14:56:38.060Z,1.95
2023-05-19T14:59:04.945Z,1.83
2023-05-19T15:01:32.264Z,2.00
2023-05-19T15:03:59.202Z,1.90
2023-05-19T15:06:26.251Z,1.88
2023-05-19T15:08:53.374Z,1.52
2023-05-19T15:11:22.434Z,1.48
2023-05-19T15:13:49.666Z,1.95
2023-05-19T15:16:18.291Z,2.20
2023-05-19T15:18:45.544Z,1.85
2023-05-19T15:21:12.548Z,1.40
2023-05-19T15:23:39.724Z,1.67
2023-05-19T15:26:07.490Z,2.00
2023-05-19T15:28:36.077Z,1.77
2023-05-19T15:31:03.005Z,2.10
2023-05-19T15:33:30.217Z,1.90
2023-05-19T15:35:57.395Z,1.52
2023-05-19T15:38:24.239Z,2.33
2023-05-19T15:40:51.349Z,2.30
2023-05-19T15:43:18.531Z,1.90
2023-05-19T15:45:46.759Z,1.67
2023-05-19T15:48:14.020Z,1.60
2023-05-19T15:50:41.011Z,2.00
2023-05-19T15:53:09.258Z,1.60
2023-05-19T15:55:36.092Z,1.80
2023-05-19T15:58:03.034Z,1.63
2023-05-19T16:00:29.957Z,1.80
2023-05-19T16:02:58.588Z,1.65
2023-05-19T16:05:25.707Z,1.70
2023-05-19T16:07:52.886Z,1.80
2023-05-19T16:10:19.768Z,1.90
2023-05-19T16:12:47.106Z,1.70
2023-05-19T16:15:14.254Z,2.53
2023-05-19T16:17:41.477Z,2.17
2023-05-19T16:20:11.250Z,2.22
2023-05-19T16:22:38.433Z,1.90
2023-05-19T16:25:06.978Z,1.92
2023-05-19T16:27:34.176Z,1.92
2023-05-19T16:30:02.453Z,1.40
2023-05-19T16:32:29.702Z,1.67
2023-05-19T16:34:56.531Z,1.40
2023-05-19T16:37:25.113Z,1.52
2023-05-19T16:39:51.954Z,1.45
2023-05-19T16:42:18.800Z,1.70
2023-05-19T16:44:45.663Z,1.42
2023-05-19T16:47:12.896Z,1.80
2023-05-19T16:49:40.796Z,1.52
2023-05-19T16:52:08.233Z,1.63
2023-05-19T16:54:36.601Z,1.60
2023-05-19T16:57:03.786Z,1.38
2023-05-19T16:59:30.635Z,1.50
2023-05-19T17:01:57.880Z,1.65
2023-05-19T17:04:24.726Z,1.40
2023-05-19T17:06:51.939Z,1.70
2023-05-19T17:09:25.053Z,1.63
2023-05-19T17:11:54.101Z,1.85
2023-05-19T17:14:21.922Z,1.63
2023-05-19T17:16:49.212Z,1.42
2023-05-19T17:19:16.855Z,1.70
2023-05-19T17:21:44.080Z,1.88
2023-05-19T17:24:10.978Z,1.70
2023-05-19T17:26:38.041Z,1.83
2023-05-19T17:29:06.178Z,1.48
2023-05-19T17:31:33.265Z,1.60
2023-05-19T17:34:00.124Z,1.52
2023-05-19T17:36:27.090Z,2.10
2023-05-19T17:38:53.969Z,1.55
2023-05-19T17:41:22.142Z,1.60
2023-05-19T17:43:49.009Z,1.67
2023-05-19T17:46:17.577Z,1.63
2023-05-19T17:48:44.661Z,1.52
2023-05-19T17:51:12.367Z,1.52
2023-05-19T17:53:39.722Z,1.67
2023-05-19T17:56:09.861Z,1.75
2023-05-19T17:58:37.173Z,1.60
2023-05-19T18:01:04.834Z,1.55
2023-05-19T18:03:33.870Z,1.70
2023-05-19T18:06:01.199Z,1.65
2023-05-19T18:08:28.918Z,1.38
2023-05-19T18:10:57.025Z,1.70
2023-05-19T18:13:24.073Z,1.77
2023-05-19T18:15:52.652Z,1.67
2023-05-19T18:18:19.632Z,1.55
2023-05-19T18:20:48.218Z,1.80
2023-05-19T18:23:15.236Z,1.90
2023-05-19T18:25:49.362Z,2.10
2023-05-19T18:28:16.254Z,2.33
2023-05-19T18:30:43.760Z,2.13
2023-05-19T18:33:12.627Z,2.08
2023-05-19T18:35:39.588Z,2.50
2023-05-19T18:38:08.017Z,2.25
2023-05-19T18:40:35.157Z,2.15
2023-05-19T18:43:02.382Z,2.38
2023-05-19T18:45:29.266Z,2.75
2023-05-19T18:47:56.541Z,2.95
2023-05-19T18:50:23.444Z,2.20
2023-05-19T18:52:50.349Z,2.38
2023-05-19T18:55:18.593Z,2.22
2023-05-19T18:57:46.317Z,2.00
2023-05-19T19:00:14.521Z,1.73
2023-05-19T19:02:41.537Z,1.85
2023-05-19T19:05:09.575Z,1.83
2023-05-19T19:07:39.901Z,1.60
2023-05-19T19:10:08.352Z,1.80
2023-05-19T19:12:36.604Z,2.17
2023-05-19T19:15:04.383Z,1.90
2023-05-19T19:17:31.448Z,2.07
2023-05-19T19:19:58.532Z,2.20
2023-05-19T19:22:25.737Z,2.13
2023-05-19T19:24:52.576Z,2.00
2023-05-19T19:27:21.191Z,2.03
2023-05-19T19:29:49.673Z,2.03
2023-05-19T19:32:16.753Z,2.27
2023-05-19T19:34:43.984Z,2.00
2023-05-19T19:37:11.087Z,2.47
2023-05-19T19:39:39.403Z,2.37
2023-05-19T19:42:06.475Z,2.30
2023-05-19T19:44:33.331Z,2.40
2023-05-19T19:47:01.580Z,2.30
2023-05-19T19:49:28.422Z,2.27
2023-05-19T19:51:55.904Z,2.10
2023-05-19T19:54:22.710Z,2.13
2023-05-19T19:56:49.935Z,2.43
2023-05-19T19:59:17.402Z,2.17
2023-05-19T20:01:44.378Z,2.80
2023-05-19T20:04:12.927Z,2.20
2023-05-19T20:06:39.967Z,2.30
2023-05-19T20:09:07.038Z,2.53
2023-05-19T20:11:33.946Z,2.40
2023-05-19T20:14:00.894Z,2.30
2023-05-19T20:16:28.228Z,2.53
2023-05-19T20:18:55.188Z,2.50
2023-05-19T20:21:23.435Z,2.80
2023-05-19T20:23:50.981Z,2.73
2023-05-19T20:26:18.219Z,2.53
2023-05-19T20:28:45.098Z,2.43
2023-05-19T20:31:12.323Z,2.40
2023-05-19T20:33:39.297Z,2.27
2023-05-19T20:36:07.275Z,2.30
2023-05-19T20:38:35.485Z,2.30
2023-05-19T20:41:02.482Z,2.10
2023-05-19T20:43:29.474Z,2.20
2023-05-19T20:45:57.229Z,2.33
2023-05-19T20:48:24.195Z,2.10
2023-05-19T20:50:51.928Z,2.00
2023-05-19T20:53:19.704Z,2.40
2023-05-19T20:55:48.493Z,2.50
2023-05-19T20:58:15.437Z,2.30
2023-05-19T21:00:42.349Z,2.30
2023-05-19T21:03:09.365Z,2.50
2023-05-19T21:05:36.799Z,2.93
2023-05-19T21:08:03.797Z,3.07
2023-05-19T21:10:31.107Z,2.80
2023-05-19T21:12:59.610Z,2.80
2023-05-19T21:15:27.193Z,2.97
2023-05-19T21:17:54.088Z,2.53
2023-05-19T21:20:21.752Z,3.07
2023-05-19T21:22:48.673Z,2.67
2023-05-19T21:25:24.826Z,2.03
2023-05-19T21:27:51.970Z,2.30
2023-05-19T21:30:20.790Z,2.90
2023-05-19T21:32:47.705Z,2.00
2023-05-19T21:35:15.113Z,2.50
2023-05-19T21:37:42.105Z,3.03
2023-05-19T21:40:10.084Z,2.70
2023-05-19T21:42:36.966Z,2.50
2023-05-19T21:45:04.781Z,2.60
2023-05-19T21:47:33.095Z,2.60
2023-05-19T21:50:00.252Z,2.47
2023-05-19T21:52:27.096Z,2.47
2023-05-19T21:54:54.266Z,2.20
2023-05-19T21:57:21.141Z,2.50
2023-05-19T21:59:48.046Z,2.80
2023-05-19T22:02:15.398Z,2.50
2023-05-19T22:04:45.070Z,2.60
2023-05-19T22:07:11.944Z,2.70
2023-05-19T22:09:39.194Z,2.87
2023-05-19T22:12:07.160Z,2.53
2023-05-19T22:14:34.244Z,3.10
2023-05-19T22:17:01.259Z,2.30
2023-05-19T22:19:28.753Z,2.67
2023-05-19T22:22:09.926Z,2.17
2023-05-19T22:24:40.978Z,2.60
2023-05-19T22:27:08.413Z,2.47
2023-05-19T22:29:38.287Z,2.27
2023-05-19T22:32:06.532Z,2.43
2023-05-19T22:34:33.480Z,2.40
2023-05-19T22:37:01.937Z,2.40
2023-05-19T22:39:29.186Z,2.67
2023-05-19T22:41:56.081Z,2.73
2023-05-19T22:44:23.236Z,2.40
2023-05-19T22:46:50.224Z,3.10
2023-05-19T22:49:17.520Z,2.50
2023-05-19T22:51:44.351Z,2.90
2023-05-19T22:54:12.972Z,2.67
2023-05-19T22:56:39.842Z,2.80
2023-05-19T22:59:07.022Z,2.43
2023-05-19T23:01:33.964Z,2.47
2023-05-19T23:04:01.302Z,2.70
2023-05-19T23:06:28.208Z,2.60
2023-05-19T23:08:59.693Z,2.80
2023-05-19T23:11:27.965Z,2.70
2023-05-19T23:13:55.141Z,2.53
2023-05-19T23:16:23.178Z,2.53
2023-05-19T23:18:50.406Z,2.63
2023-05-19T23:21:17.284Z,2.60
2023-05-19T23:23:44.514Z,2.43
2023-05-19T23:26:13.386Z,2.30
2023-05-19T23:28:42.008Z,2.70
2023-05-19T23:31:08.970Z,2.57
2023-05-19T23:33:36.279Z,2.67
2023-05-19T23:36:06.442Z,2.60
2023-05-19T23:38:33.947Z,2.30
2023-05-19T23:41:00.866Z,2.50
2023-05-19T23:43:28.062Z,2.30
2023-05-19T23:45:56.303Z,2.40
2023-05-19T23:48:23.470Z,2.33
2023-05-19T23:50:50.414Z,2.40
2023-05-19T23:53:17.325Z,2.60
2023-05-19T23:55:44.958Z,2.50
2023-05-19T23:58:12.379Z,2.53
